createdAt,value
2023-01-23T05:16:34.482Z,0.58
2023-01-23T05:19:14.299Z,0.62
2023-01-23T05:21:41.230Z,0.66
2023-01-23T05:24:12.109Z,0.59
2023-01-23T05:26:40.904Z,0.67
2023-01-23T05:29:07.721Z,0.69
2023-01-23T05:31:38.314Z,0.78
2023-01-23T05:34:32.119Z,0.73
2023-01-23T05:37:01.957Z,0.74
2023-01-23T05:39:32.053Z,0.76
2023-01-23T05:42:00.014Z,0.72
2023-01-23T05:44:31.645Z,0.76
2023-01-23T05:47:10.311Z,0.85
2023-01-23T05:49:37.821Z,0.88
2023-01-23T05:52:05.515Z,0.65
2023-01-23T05:54:34.138Z,0.50
2023-01-23T05:57:00.758Z,0.66
2023-01-23T05:59:49.109Z,0.60
2023-01-23T06:02:35.206Z,0.78
2023-01-23T06:05:29.864Z,0.72
2023-01-23T06:08:08.655Z,0.66
2023-01-23T06:10:38.388Z,0.72
2023-01-23T06:13:05.369Z,0.59
2023-01-23T06:15:32.158Z,0.72
2023-01-23T06:18:03.949Z,0.57
2023-01-23T06:20:30.474Z,0.79
2023-01-23T06:22:57.206Z,0.77
2023-01-23T06:25:23.798Z,0.92
2023-01-23T06:27:54.874Z,1.01
2023-01-23T06:30:23.024Z,0.85
2023-01-23T06:32:50.186Z,0.94
2023-01-23T06:35:21.461Z,0.99
2023-01-23T06:37:50.884Z,0.94
2023-01-23T06:40:19.889Z,0.96
2023-01-23T06:42:57.425Z,0.79
2023-01-23T06:45:24.087Z,0.83
2023-01-23T06:47:52.612Z,0.75
2023-01-23T06:50:19.522Z,0.81
2023-01-23T06:52:46.365Z,0.75
2023-01-23T06:55:14.578Z,0.87
2023-01-23T06:57:41.291Z,0.86
2023-01-23T07:00:13.116Z,0.93
2023-01-23T07:02:40.056Z,0.75
2023-01-23T07:05:07.067Z,0.56
2023-01-23T07:07:33.694Z,0.81
2023-01-23T07:10:00.322Z,0.83
2023-01-23T07:12:26.822Z,0.75
2023-01-23T07:14:53.374Z,0.84
2023-01-23T07:17:28.712Z,0.77
2023-01-23T07:19:55.210Z,0.84
2023-01-23T07:22:22.861Z,0.81
2023-01-23T07:24:49.388Z,0.82
2023-01-23T07:27:15.998Z,0.81
2023-01-23T07:29:43.168Z,0.74
2023-01-23T07:32:11.192Z,0.77
2023-01-23T07:34:38.021Z,0.56
2023-01-23T07:37:04.600Z,0.57
2023-01-23T07:39:31.185Z,0.73
2023-01-23T07:41:58.703Z,0.65
2023-01-23T07:44:28.063Z,0.50
2023-01-23T07:46:54.607Z,0.69
2023-01-23T07:49:21.151Z,0.76
2023-01-23T07:51:47.720Z,0.54
2023-01-23T07:54:14.310Z,0.49
2023-01-23T07:56:54.893Z,0.66
2023-01-23T07:59:28.790Z,0.58
2023-01-23T08:01:55.419Z,0.63
2023-01-23T08:04:21.978Z,0.77
2023-01-23T08:06:48.497Z,0.62
2023-01-23T08:09:15.024Z,0.75
2023-01-23T08:11:41.648Z,0.80
2023-01-23T08:14:08.116Z,0.63
2023-01-23T08:16:34.703Z,1.03
2023-01-23T08:19:01.182Z,0.93
2023-01-23T08:21:27.757Z,0.87
2023-01-23T08:23:55.369Z,0.93
2023-01-23T08:26:21.822Z,0.84
2023-01-23T08:28:48.343Z,0.75
2023-01-23T08:31:15.056Z,0.99
2023-01-23T08:33:41.638Z,0.88
2023-01-23T08:36:11.269Z,1.04
2023-01-23T08:38:38.262Z,0.95
2023-01-23T08:41:05.716Z,1.00
2023-01-23T08:43:32.915Z,0.98
2023-01-23T08:45:59.887Z,1.08
2023-01-23T08:48:27.660Z,1.21
2023-01-23T08:51:03.323Z,1.13
2023-01-23T08:53:30.962Z,1.14
2023-01-23T08:56:01.353Z,0.96
2023-01-23T08:58:28.174Z,0.70
2023-01-23T09:00:55.002Z,1.02
2023-01-23T09:03:21.988Z,1.16
2023-01-23T09:05:48.793Z,1.15
2023-01-23T09:08:15.626Z,1.03
2023-01-23T09:10:42.205Z,0.82
2023-01-23T09:13:08.735Z,0.84
2023-01-23T09:15:38.166Z,0.87
2023-01-23T09:18:05.122Z,0.76
2023-01-23T09:20:31.679Z,1.18
2023-01-23T09:22:58.252Z,1.20
2023-01-23T09:25:24.847Z,1.04
2023-01-23T09:27:51.309Z,0.92
2023-01-23T09:30:18.238Z,0.94
2023-01-23T09:32:45.013Z,1.38
2023-01-23T09:35:11.869Z,1.12
2023-01-23T09:38:00.000Z,1.21
2023-01-23T09:40:44.985Z,0.97
2023-01-23T09:43:33.324Z,0.92
2023-01-23T09:46:19.025Z,1.08
2023-01-23T09:49:23.978Z,1.01
2023-01-23T09:52:03.188Z,1.19
2023-01-23T09:54:44.461Z,1.51
2023-01-23T09:57:29.736Z,1.71
2023-01-23T10:00:06.590Z,1.57
2023-01-23T10:02:34.171Z,1.66
2023-01-23T10:05:02.909Z,1.37
2023-01-23T10:07:52.544Z,1.52
2023-01-23T10:10:47.391Z,1.59
2023-01-23T10:13:27.025Z,1.77
2023-01-23T10:16:10.902Z,1.93
2023-01-23T10:18:47.131Z,1.75
2023-01-23T10:21:38.816Z,2.10
2023-01-23T10:24:40.053Z,2.07
2023-01-23T10:27:33.960Z,2.18
2023-01-23T10:30:20.901Z,2.51
2023-01-23T10:33:13.530Z,2.21
2023-01-23T10:35:50.947Z,2.12
2023-01-23T10:38:26.807Z,2.47
2023-01-23T10:41:12.590Z,2.74
2023-01-23T10:43:40.650Z,2.14
2023-01-23T10:46:16.191Z,1.68
2023-01-23T10:48:49.895Z,1.89
2023-01-23T10:51:33.749Z,2.11
2023-01-23T10:54:31.788Z,2.23
2023-01-23T10:57:02.168Z,2.22
2023-01-23T11:00:08.397Z,2.53
2023-01-23T11:02:37.402Z,2.29
2023-01-23T11:05:46.567Z,2.32
2023-01-23T11:09:10.270Z,2.40
2023-01-23T11:11:40.802Z,2.04
2023-01-23T11:14:16.919Z,2.06
2023-01-23T11:16:44.010Z,2.45
2023-01-23T11:19:12.688Z,2.28
2023-01-23T11:21:53.584Z,2.16
2023-01-23T11:24:39.266Z,2.38
2023-01-23T11:27:28.133Z,2.36
2023-01-23T11:30:16.855Z,2.73
2023-01-23T11:32:58.779Z,2.79
2023-01-23T11:35:50.966Z,2.73
2023-01-23T11:38:30.449Z,2.62
2023-01-23T11:40:59.953Z,2.61
2023-01-23T11:43:26.538Z,2.74
2023-01-23T11:46:06.812Z,2.56
2023-01-23T11:49:00.786Z,3.06
2023-01-23T11:51:41.998Z,3.18
2023-01-23T11:54:35.112Z,2.78
2023-01-23T11:57:33.985Z,3.25
2023-01-23T12:00:32.873Z,3.35
2023-01-23T12:03:27.014Z,4.40
2023-01-23T12:06:36.363Z,4.82
2023-01-23T12:09:11.013Z,6.05
2023-01-23T12:12:20.142Z,7.12
2023-01-23T12:14:57.055Z,9.32
2023-01-23T12:17:41.735Z,11.07
2023-01-23T12:20:38.961Z,12.48
2023-01-23T12:23:45.264Z,13.59
2023-01-23T12:26:22.523Z,14.07
2023-01-23T12:29:06.797Z,14.25
2023-01-23T12:32:24.748Z,15.63
2023-01-23T12:35:00.636Z,17.20
2023-01-23T12:37:49.816Z,17.40
2023-01-23T12:40:38.728Z,17.24
2023-01-23T12:43:44.156Z,17.37
2023-01-23T12:46:18.395Z,15.87
2023-01-23T12:49:18.908Z,17.13
2023-01-23T12:51:50.116Z,17.04
2023-01-23T12:54:27.864Z,17.20
2023-01-23T12:56:55.031Z,17.63
2023-01-23T12:59:55.789Z,16.58
2023-01-23T13:02:45.295Z,18.20
2023-01-23T13:05:31.018Z,19.13
2023-01-23T13:08:22.471Z,19.41
2023-01-23T13:11:19.012Z,17.59
2023-01-23T13:13:47.065Z,18.27
2023-01-23T13:16:19.689Z,18.38
2023-01-23T13:19:52.131Z,17.06
2023-01-23T13:22:42.638Z,16.65
2023-01-23T13:25:41.368Z,15.84
2023-01-23T13:28:58.247Z,15.66
2023-01-23T13:32:02.462Z,14.81
2023-01-23T13:34:36.047Z,15.45
2023-01-23T13:37:27.391Z,16.05
2023-01-23T13:40:18.693Z,15.56
2023-01-23T13:42:45.202Z,16.50
2023-01-23T13:45:27.382Z,16.92
2023-01-23T14:22:19.844Z,13.99
2023-01-23T14:24:48.916Z,14.60
2023-01-23T14:27:53.225Z,14.01
2023-01-23T14:30:26.299Z,12.73
2023-01-23T14:32:53.024Z,11.83
2023-01-23T14:35:24.371Z,10.27
2023-01-23T14:37:53.648Z,8.87
2023-01-23T14:40:27.687Z,7.41
2023-01-23T14:43:01.238Z,7.08
2023-01-23T14:45:33.520Z,6.25
2023-01-23T14:48:06.906Z,5.83
2023-01-23T14:50:34.121Z,5.27
2023-01-23T14:53:05.989Z,4.93
2023-01-23T14:55:37.791Z,4.56
2023-01-23T14:58:04.851Z,4.64
2023-01-23T15:00:32.408Z,4.27
2023-01-23T15:02:59.028Z,4.23
2023-01-23T15:05:27.564Z,4.33
2023-01-23T15:07:56.649Z,4.29
2023-01-23T15:10:29.340Z,3.73
2023-01-23T15:13:01.997Z,3.31
2023-01-23T15:15:30.211Z,3.19
2023-01-23T15:18:00.533Z,3.07
2023-01-23T15:20:41.118Z,2.79
2023-01-23T15:23:38.363Z,3.12
2023-01-23T15:26:14.031Z,2.71
2023-01-23T15:28:51.165Z,2.46
2023-01-23T15:31:34.485Z,2.49
2023-01-23T15:34:16.605Z,2.47
2023-01-23T15:37:00.344Z,2.43
2023-01-23T15:39:40.639Z,2.23
2023-01-23T15:42:13.283Z,2.31
2023-01-23T15:44:41.143Z,2.31
2023-01-23T15:47:07.681Z,1.97
2023-01-23T15:49:38.939Z,2.06
2023-01-23T15:52:22.857Z,2.02
2023-01-23T15:54:52.836Z,2.11
2023-01-23T15:57:19.821Z,2.02
2023-01-23T15:59:46.515Z,1.54
2023-01-23T16:02:30.626Z,1.74
2023-01-23T16:04:58.177Z,1.56
2023-01-23T16:07:34.089Z,1.59
2023-01-23T16:10:02.464Z,1.38
2023-01-23T16:12:30.066Z,1.52
2023-01-23T16:14:57.416Z,1.32
2023-01-23T16:17:24.018Z,1.36
2023-01-23T16:19:50.748Z,1.25
2023-01-23T16:22:29.408Z,1.42
2023-01-23T16:24:58.256Z,1.34
2023-01-23T16:27:27.935Z,1.18
2023-01-23T16:29:56.932Z,1.05
2023-01-23T16:32:24.093Z,1.02
2023-01-23T16:34:50.920Z,1.06
2023-01-23T16:37:18.860Z,1.07
2023-01-23T16:39:46.743Z,0.91
2023-01-23T16:42:22.186Z,0.67
2023-01-23T16:44:51.843Z,0.70
2023-01-23T16:47:21.677Z,0.81
2023-01-23T16:49:53.597Z,0.79
2023-01-23T16:52:24.988Z,0.87
2023-01-23T16:54:53.258Z,0.70
2023-01-23T16:57:21.254Z,0.62
2023-01-23T16:59:49.995Z,0.79
2023-01-23T17:02:26.455Z,0.97
2023-01-23T17:04:54.700Z,0.79
2023-01-23T17:07:21.301Z,0.77
2023-01-23T17:09:49.309Z,0.84
2023-01-23T17:12:24.122Z,0.73
2023-01-23T17:14:52.600Z,0.64
2023-01-23T17:17:28.622Z,0.61
2023-01-23T17:19:55.585Z,0.57
2023-01-23T17:22:28.030Z,0.59
2023-01-23T17:24:54.611Z,0.53
2023-01-23T17:27:21.067Z,0.47
2023-01-23T17:29:48.336Z,0.45
2023-01-23T17:32:35.702Z,0.50
2023-01-23T17:35:06.658Z,0.54
2023-01-23T17:37:36.446Z,0.68
2023-01-23T17:40:03.690Z,0.54
2023-01-23T17:42:30.158Z,0.62
2023-01-23T17:45:05.726Z,0.42
2023-01-23T17:47:34.825Z,0.53
2023-01-23T17:50:03.789Z,0.74
2023-01-23T17:55:51.702Z,0.41
2023-01-23T17:58:20.183Z,0.39
2023-01-23T18:00:52.516Z,0.47
2023-01-23T18:03:22.682Z,0.40
2023-01-23T18:05:50.369Z,0.30
2023-01-23T18:08:18.811Z,0.38
2023-01-23T18:10:47.256Z,0.24
2023-01-23T18:13:22.169Z,0.33
2023-01-23T18:16:05.232Z,0.33
2023-01-23T18:18:37.396Z,0.48
2023-01-23T18:21:06.010Z,0.30
2023-01-23T18:23:37.056Z,0.12
2023-01-23T18:26:10.383Z,0.16
2023-01-23T18:29:02.151Z,0.12
2023-01-23T18:31:46.328Z,0.27
2023-01-23T18:34:18.820Z,0.11
2023-01-23T18:36:55.389Z,0.18
2023-01-23T18:39:54.945Z,0.09
2023-01-23T18:42:33.747Z,0.10
2023-01-23T18:45:04.708Z,0.20
2023-01-23T18:47:31.455Z,0.10
2023-01-23T18:50:00.359Z,0.02
2023-01-23T18:52:52.692Z,0.16
2023-01-23T18:55:41.306Z,0.03
2023-01-23T18:58:24.296Z,0.01
2023-01-23T19:01:03.474Z,-0.03
2023-01-23T19:03:44.842Z,0.01
2023-01-23T19:06:19.435Z,0.03
2023-01-23T19:08:48.030Z,0.04
2023-01-23T19:11:30.732Z,0.14
2023-01-23T19:14:06.069Z,-0.01
2023-01-23T19:16:36.950Z,0.15
2023-01-23T19:19:15.835Z,0.11
2023-01-23T19:21:45.826Z,0.03
2023-01-23T19:24:13.562Z,0.01
2023-01-23T19:26:41.830Z,0.01
2023-01-23T19:29:26.085Z,0.06
2023-01-23T19:32:04.716Z,0.10
2023-01-23T19:34:32.947Z,-0.03
2023-01-23T19:36:59.897Z,0.11
2023-01-23T19:39:26.456Z,0.18
2023-01-23T19:41:53.392Z,0.10
2023-01-23T19:44:23.975Z,0.17
2023-01-23T19:46:51.986Z,0.07
2023-01-23T19:49:18.863Z,0.01
2023-01-23T19:51:47.046Z,0.24
2023-01-23T19:54:14.985Z,0.02
2023-01-23T19:56:47.748Z,0.05
2023-01-23T19:59:17.845Z,-0.04
2023-01-23T20:01:48.245Z,0.06
2023-01-23T20:04:18.077Z,0.02
2023-01-23T20:06:52.423Z,-0.15
2023-01-23T20:09:22.851Z,0.07
2023-01-23T20:11:49.924Z,0.10
2023-01-23T20:14:16.652Z,-0.02
2023-01-23T20:16:43.686Z,-0.15
2023-01-23T20:19:15.350Z,-0.04
2023-01-23T20:21:43.523Z,0.00
2023-01-23T20:24:10.472Z,-0.11
2023-01-23T20:26:37.873Z,0.08
2023-01-23T20:29:05.257Z,0.24
2023-01-23T20:31:32.492Z,0.09
2023-01-23T20:33:59.900Z,-0.08
2023-01-23T20:36:26.501Z,-0.03
2023-01-23T20:38:52.987Z,-0.09
2023-01-23T20:41:20.438Z,-0.19
2023-01-23T20:43:47.588Z,-0.15
2023-01-23T20:46:15.580Z,-0.03
2023-01-23T20:48:44.341Z,-0.03
2023-01-23T20:51:15.610Z,-0.04
2023-01-23T20:53:42.738Z,-0.14
2023-01-23T20:56:19.180Z,-0.18
2023-01-23T20:59:07.349Z,-0.12
2023-01-23T21:01:55.488Z,0.06
2023-01-23T21:04:24.376Z,0.02
2023-01-23T21:06:51.112Z,-0.08
2023-01-23T21:09:17.798Z,-0.01
2023-01-23T21:11:44.829Z,-0.04
2023-01-23T21:14:12.861Z,-0.08
2023-01-23T21:16:39.521Z,-0.03
2023-01-23T21:19:06.174Z,0.11
2023-01-23T21:21:33.047Z,0.07
2023-01-23T21:23:59.786Z,-0.03
2023-01-23T21:26:27.883Z,-0.09
2023-01-23T21:28:56.787Z,-0.09
2023-01-23T21:31:26.629Z,0.07
2023-01-23T21:33:54.355Z,0.11
2023-01-23T21:36:23.347Z,0.08
2023-01-23T21:38:51.428Z,-0.01
2023-01-23T21:41:18.632Z,-0.04
2023-01-23T21:43:45.249Z,-0.04
2023-01-23T21:46:12.025Z,0.07
2023-01-23T21:48:38.803Z,-0.13
2023-01-23T21:51:19.973Z,-0.10
2023-01-23T21:53:47.795Z,0.05
2023-01-23T21:56:17.419Z,-0.09
2023-01-23T21:58:44.527Z,-0.21
2023-01-23T22:01:33.248Z,-0.02
2023-01-23T22:04:07.559Z,-0.27
2023-01-23T22:06:35.080Z,-0.08
2023-01-23T22:09:02.097Z,-0.06
2023-01-23T22:11:29.152Z,-0.12
2023-01-23T22:13:55.744Z,-0.01
2023-01-23T22:16:31.958Z,0.02
2023-01-23T22:19:07.214Z,-0.01
2023-01-23T22:21:34.201Z,-0.15
2023-01-23T22:24:01.399Z,-0.12
2023-01-23T22:26:28.062Z,-0.17
2023-01-23T22:28:54.621Z,-0.10
2023-01-23T22:31:21.251Z,-0.08
2023-01-23T22:33:48.186Z,-0.08
2023-01-23T22:36:17.984Z,-0.14
2023-01-23T22:38:49.768Z,-0.13
2023-01-23T22:41:16.300Z,-0.08
2023-01-23T22:43:42.810Z,-0.17
2023-01-23T22:46:15.363Z,-0.10
2023-01-23T22:48:42.369Z,-0.25
2023-01-23T22:51:18.157Z,-0.27
2023-01-23T22:53:44.605Z,-0.24
2023-01-23T22:56:11.652Z,-0.18
2023-01-23T22:58:38.423Z,-0.31
